sensor_id;sensor_type;location;lat;lon;timestamp;P1;durP1;ratioP1;P2;durP2;ratioP2
8737;SDS011;4405;49.272;8.590;2023-02-11T00:00:18;39.03;;;23.47;;
8737;SDS011;4405;49.272;8.590;2023-02-11T00:02:45;34.47;;;21.53;;
8737;SDS011;4405;49.272;8.590;2023-02-11T00:05:11;38.90;;;23.30;;
8737;SDS011;4405;49.272;8.590;2023-02-11T00:07:38;35.37;;;22.07;;
8737;SDS011;4405;49.272;8.590;2023-02-11T00:10:06;33.80;;;22.50;;
8737;SDS011;4405;49.272;8.590;2023-02-11T00:12:32;34.57;;;21.93;;
8737;SDS011;4405;49.272;8.590;2023-02-11T00:14:58;35.00;;;21.30;;
8737;SDS011;4405;49.272;8.590;2023-02-11T00:17:25;34.23;;;21.10;;
8737;SDS011;4405;49.272;8.590;2023-02-11T00:19:51;34.10;;;21.30;;
8737;SDS011;4405;49.272;8.590;2023-02-11T00:22:18;33.43;;;19.33;;
8737;SDS011;4405;49.272;8.590;2023-02-11T00:24:44;35.07;;;21.50;;
8737;SDS011;4405;49.272;8.590;2023-02-11T00:27:12;33.97;;;21.03;;
8737;SDS011;4405;49.272;8.590;2023-02-11T00:29:38;32.97;;;21.53;;
8737;SDS011;4405;49.272;8.590;2023-02-11T00:32:05;31.57;;;20.23;;
8737;SDS011;4405;49.272;8.590;2023-02-11T00:34:33;31.30;;;20.37;;
8737;SDS011;4405;49.272;8.590;2023-02-11T00:36:59;34.70;;;19.90;;
8737;SDS011;4405;49.272;8.590;2023-02-11T00:39:26;33.60;;;21.17;;
8737;SDS011;4405;49.272;8.590;2023-02-11T00:41:52;31.07;;;20.33;;
8737;SDS011;4405;49.272;8.590;2023-02-11T00:44:20;30.20;;;20.80;;
8737;SDS011;4405;49.272;8.590;2023-02-11T00:46:46;32.90;;;21.77;;
8737;SDS011;4405;49.272;8.590;2023-02-11T00:49:12;32.17;;;20.97;;
8737;SDS011;4405;49.272;8.590;2023-02-11T00:51:39;34.73;;;20.90;;
8737;SDS011;4405;49.272;8.590;2023-02-11T00:54:05;33.87;;;20.80;;
8737;SDS011;4405;49.272;8.590;2023-02-11T00:56:31;34.27;;;21.97;;
8737;SDS011;4405;49.272;8.590;2023-02-11T00:58:58;30.07;;;21.57;;
8737;SDS011;4405;49.272;8.590;2023-02-11T01:01:26;31.57;;;21.17;;
8737;SDS011;4405;49.272;8.590;2023-02-11T01:03:52;32.30;;;21.77;;
8737;SDS011;4405;49.272;8.590;2023-02-11T01:06:18;36.33;;;21.17;;
8737;SDS011;4405;49.272;8.590;2023-02-11T01:08:45;34.33;;;21.90;;
8737;SDS011;4405;49.272;8.590;2023-02-11T01:11:13;34.90;;;21.53;;
8737;SDS011;4405;49.272;8.590;2023-02-11T01:13:39;34.47;;;21.40;;
8737;SDS011;4405;49.272;8.590;2023-02-11T01:16:06;36.33;;;23.20;;
8737;SDS011;4405;49.272;8.590;2023-02-11T01:18:34;35.60;;;22.30;;
8737;SDS011;4405;49.272;8.590;2023-02-11T01:21:01;36.50;;;21.80;;
8737;SDS011;4405;49.272;8.590;2023-02-11T01:23:27;35.90;;;22.10;;
8737;SDS011;4405;49.272;8.590;2023-02-11T01:25:53;32.20;;;21.13;;
8737;SDS011;4405;49.272;8.590;2023-02-11T01:28:21;35.40;;;22.23;;
8737;SDS011;4405;49.272;8.590;2023-02-11T01:30:48;34.90;;;22.40;;
8737;SDS011;4405;49.272;8.590;2023-02-11T01:33:14;35.53;;;23.13;;
8737;SDS011;4405;49.272;8.590;2023-02-11T01:35:42;36.80;;;22.20;;
8737;SDS011;4405;49.272;8.590;2023-02-11T01:38:12;33.67;;;22.33;;
8737;SDS011;4405;49.272;8.590;2023-02-11T01:40:39;35.83;;;22.67;;
8737;SDS011;4405;49.272;8.590;2023-02-11T01:43:05;37.87;;;22.50;;
8737;SDS011;4405;49.272;8.590;2023-02-11T01:48:17;37.03;;;22.97;;
8737;SDS011;4405;49.272;8.590;2023-02-11T01:50:46;35.07;;;22.57;;
8737;SDS011;4405;49.272;8.590;2023-02-11T01:53:14;37.53;;;23.60;;
8737;SDS011;4405;49.272;8.590;2023-02-11T01:55:55;39.47;;;23.60;;
8737;SDS011;4405;49.272;8.590;2023-02-11T01:58:40;39.03;;;23.23;;
8737;SDS011;4405;49.272;8.590;2023-02-11T02:01:07;36.33;;;23.43;;
8737;SDS011;4405;49.272;8.590;2023-02-11T02:03:34;36.60;;;22.50;;
8737;SDS011;4405;49.272;8.590;2023-02-11T02:06:05;40.87;;;24.73;;
8737;SDS011;4405;49.272;8.590;2023-02-11T02:08:33;36.43;;;23.20;;
8737;SDS011;4405;49.272;8.590;2023-02-11T02:11:01;37.83;;;24.73;;
8737;SDS011;4405;49.272;8.590;2023-02-11T02:13:29;35.63;;;23.93;;
8737;SDS011;4405;49.272;8.590;2023-02-11T02:15:58;36.03;;;23.03;;
8737;SDS011;4405;49.272;8.590;2023-02-11T02:18:29;37.37;;;23.43;;
8737;SDS011;4405;49.272;8.590;2023-02-11T02:23:57;37.73;;;24.80;;
8737;SDS011;4405;49.272;8.590;2023-02-11T02:29:30;38.57;;;24.63;;
8737;SDS011;4405;49.272;8.590;2023-02-11T02:32:12;36.97;;;24.13;;
8737;SDS011;4405;49.272;8.590;2023-02-11T02:34:41;39.90;;;25.50;;
8737;SDS011;4405;49.272;8.590;2023-02-11T02:37:11;36.87;;;23.57;;
8737;SDS011;4405;49.272;8.590;2023-02-11T02:39:40;39.83;;;24.23;;
8737;SDS011;4405;49.272;8.590;2023-02-11T02:42:06;37.73;;;24.00;;
8737;SDS011;4405;49.272;8.590;2023-02-11T02:44:33;37.07;;;23.40;;
8737;SDS011;4405;49.272;8.590;2023-02-11T02:46:59;38.10;;;23.07;;
8737;SDS011;4405;49.272;8.590;2023-02-11T02:49:27;37.13;;;23.77;;
8737;SDS011;4405;49.272;8.590;2023-02-11T02:51:57;42.40;;;23.47;;
8737;SDS011;4405;49.272;8.590;2023-02-11T02:54:37;35.87;;;22.77;;
8737;SDS011;4405;49.272;8.590;2023-02-11T02:57:11;38.27;;;24.67;;
8737;SDS011;4405;49.272;8.590;2023-02-11T02:59:47;36.03;;;23.60;;
8737;SDS011;4405;49.272;8.590;2023-02-11T03:02:19;34.23;;;23.07;;
8737;SDS011;4405;49.272;8.590;2023-02-11T03:04:51;35.70;;;23.43;;
8737;SDS011;4405;49.272;8.590;2023-02-11T03:07:21;35.30;;;23.33;;
8737;SDS011;4405;49.272;8.590;2023-02-11T03:09:51;34.67;;;23.37;;
8737;SDS011;4405;49.272;8.590;2023-02-11T03:12:21;33.70;;;22.97;;
8737;SDS011;4405;49.272;8.590;2023-02-11T03:14:48;38.63;;;24.47;;
8737;SDS011;4405;49.272;8.590;2023-02-11T03:17:16;34.23;;;23.53;;
8737;SDS011;4405;49.272;8.590;2023-02-11T03:19:44;37.57;;;24.17;;
8737;SDS011;4405;49.272;8.590;2023-02-11T03:22:15;40.73;;;23.93;;
8737;SDS011;4405;49.272;8.590;2023-02-11T03:24:42;34.87;;;22.97;;
8737;SDS011;4405;49.272;8.590;2023-02-11T03:27:11;35.03;;;22.37;;
8737;SDS011;4405;49.272;8.590;2023-02-11T03:29:38;37.03;;;24.03;;
8737;SDS011;4405;49.272;8.590;2023-02-11T03:32:07;34.23;;;23.30;;
8737;SDS011;4405;49.272;8.590;2023-02-11T03:34:37;35.27;;;23.43;;
8737;SDS011;4405;49.272;8.590;2023-02-11T03:37:06;35.57;;;24.90;;
8737;SDS011;4405;49.272;8.590;2023-02-11T03:39:37;36.20;;;23.67;;
8737;SDS011;4405;49.272;8.590;2023-02-11T03:42:04;38.13;;;23.63;;
8737;SDS011;4405;49.272;8.590;2023-02-11T03:44:33;37.17;;;23.50;;
8737;SDS011;4405;49.272;8.590;2023-02-11T03:47:01;33.67;;;24.27;;
8737;SDS011;4405;49.272;8.590;2023-02-11T03:49:28;40.90;;;25.00;;
8737;SDS011;4405;49.272;8.590;2023-02-11T03:51:57;34.40;;;23.57;;
8737;SDS011;4405;49.272;8.590;2023-02-11T03:54:27;35.50;;;23.10;;
8737;SDS011;4405;49.272;8.590;2023-02-11T03:56:57;37.83;;;23.93;;
8737;SDS011;4405;49.272;8.590;2023-02-11T03:59:23;40.13;;;25.67;;
8737;SDS011;4405;49.272;8.590;2023-02-11T04:01:50;38.60;;;25.87;;
8737;SDS011;4405;49.272;8.590;2023-02-11T04:04:16;37.73;;;24.70;;
8737;SDS011;4405;49.272;8.590;2023-02-11T04:06:43;40.53;;;25.33;;
8737;SDS011;4405;49.272;8.590;2023-02-11T04:09:12;39.37;;;25.50;;
8737;SDS011;4405;49.272;8.590;2023-02-11T04:11:38;38.93;;;24.97;;
8737;SDS011;4405;49.272;8.590;2023-02-11T04:14:06;36.77;;;25.13;;
8737;SDS011;4405;49.272;8.590;2023-02-11T04:16:32;34.83;;;24.30;;
8737;SDS011;4405;49.272;8.590;2023-02-11T04:18:59;38.17;;;25.73;;
8737;SDS011;4405;49.272;8.590;2023-02-11T04:21:25;41.63;;;25.70;;
8737;SDS011;4405;49.272;8.590;2023-02-11T04:23:52;38.93;;;24.73;;
8737;SDS011;4405;49.272;8.590;2023-02-11T04:26:18;38.03;;;25.73;;
8737;SDS011;4405;49.272;8.590;2023-02-11T04:28:44;38.37;;;26.30;;
8737;SDS011;4405;49.272;8.590;2023-02-11T04:31:12;40.47;;;26.53;;
8737;SDS011;4405;49.272;8.590;2023-02-11T04:33:38;40.20;;;27.20;;
8737;SDS011;4405;49.272;8.590;2023-02-11T04:36:05;40.57;;;25.57;;
8737;SDS011;4405;49.272;8.590;2023-02-11T04:38:31;37.60;;;25.93;;
8737;SDS011;4405;49.272;8.590;2023-02-11T04:40:58;39.07;;;25.17;;
8737;SDS011;4405;49.272;8.590;2023-02-11T04:43:25;36.90;;;25.17;;
8737;SDS011;4405;49.272;8.590;2023-02-11T04:45:51;39.67;;;24.67;;
8737;SDS011;4405;49.272;8.590;2023-02-11T04:48:22;37.77;;;25.07;;
8737;SDS011;4405;49.272;8.590;2023-02-11T04:50:49;39.73;;;25.47;;
8737;SDS011;4405;49.272;8.590;2023-02-11T04:53:15;35.53;;;23.63;;
8737;SDS011;4405;49.272;8.590;2023-02-11T04:55:41;37.27;;;24.00;;
8737;SDS011;4405;49.272;8.590;2023-02-11T04:58:08;35.07;;;24.10;;
8737;SDS011;4405;49.272;8.590;2023-02-11T05:00:34;36.40;;;23.13;;
8737;SDS011;4405;49.272;8.590;2023-02-11T05:03:00;34.47;;;22.90;;
8737;SDS011;4405;49.272;8.590;2023-02-11T05:05:28;38.53;;;24.60;;
8737;SDS011;4405;49.272;8.590;2023-02-11T05:07:54;38.47;;;23.90;;
8737;SDS011;4405;49.272;8.590;2023-02-11T05:10:21;33.83;;;23.57;;
8737;SDS011;4405;49.272;8.590;2023-02-11T05:12:47;34.63;;;22.97;;
8737;SDS011;4405;49.272;8.590;2023-02-11T05:15:14;34.83;;;22.83;;
8737;SDS011;4405;49.272;8.590;2023-02-11T05:17:40;36.07;;;23.70;;
8737;SDS011;4405;49.272;8.590;2023-02-11T05:20:07;35.00;;;22.43;;
8737;SDS011;4405;49.272;8.590;2023-02-11T05:22:35;33.67;;;22.27;;
8737;SDS011;4405;49.272;8.590;2023-02-11T05:25:01;34.87;;;22.70;;
8737;SDS011;4405;49.272;8.590;2023-02-11T05:27:27;35.00;;;23.27;;
8737;SDS011;4405;49.272;8.590;2023-02-11T05:29:54;33.80;;;22.97;;
8737;SDS011;4405;49.272;8.590;2023-02-11T05:32:20;34.83;;;23.40;;
8737;SDS011;4405;49.272;8.590;2023-02-11T05:34:46;33.37;;;22.13;;
8737;SDS011;4405;49.272;8.590;2023-02-11T05:37:13;34.23;;;23.00;;
8737;SDS011;4405;49.272;8.590;2023-02-11T05:39:40;32.73;;;22.17;;
8737;SDS011;4405;49.272;8.590;2023-02-11T05:42:07;35.20;;;23.37;;
8737;SDS011;4405;49.272;8.590;2023-02-11T05:44:33;37.10;;;23.00;;
8737;SDS011;4405;49.272;8.590;2023-02-11T05:47:00;32.50;;;22.60;;
8737;SDS011;4405;49.272;8.590;2023-02-11T05:49:26;31.67;;;22.23;;
8737;SDS011;4405;49.272;8.590;2023-02-11T05:51:52;36.43;;;22.83;;
8737;SDS011;4405;49.272;8.590;2023-02-11T05:54:19;32.23;;;22.80;;
8737;SDS011;4405;49.272;8.590;2023-02-11T05:56:46;35.93;;;23.33;;
8737;SDS011;4405;49.272;8.590;2023-02-11T05:59:13;33.57;;;23.07;;
8737;SDS011;4405;49.272;8.590;2023-02-11T06:01:39;31.10;;;21.03;;
8737;SDS011;4405;49.272;8.590;2023-02-11T06:04:06;34.50;;;23.57;;
8737;SDS011;4405;49.272;8.590;2023-02-11T06:06:32;33.03;;;22.97;;
8737;SDS011;4405;49.272;8.590;2023-02-11T06:08:58;31.43;;;21.87;;
8737;SDS011;4405;49.272;8.590;2023-02-11T06:11:25;34.10;;;23.07;;
8737;SDS011;4405;49.272;8.590;2023-02-11T06:13:52;33.37;;;21.70;;
8737;SDS011;4405;49.272;8.590;2023-02-11T06:16:19;34.37;;;23.07;;
8737;SDS011;4405;49.272;8.590;2023-02-11T06:18:45;32.47;;;21.40;;
8737;SDS011;4405;49.272;8.590;2023-02-11T06:21:12;36.00;;;24.10;;
8737;SDS011;4405;49.272;8.590;2023-02-11T06:23:38;36.70;;;25.27;;
8737;SDS011;4405;49.272;8.590;2023-02-11T06:26:05;35.00;;;22.87;;
8737;SDS011;4405;49.272;8.590;2023-02-11T06:28:32;34.07;;;22.43;;
8737;SDS011;4405;49.272;8.590;2023-02-11T06:31:04;35.07;;;23.07;;
8737;SDS011;4405;49.272;8.590;2023-02-11T06:33:31;32.60;;;23.20;;
8737;SDS011;4405;49.272;8.590;2023-02-11T06:35:58;36.57;;;23.97;;
8737;SDS011;4405;49.272;8.590;2023-02-11T06:38:24;37.50;;;23.53;;
8737;SDS011;4405;49.272;8.590;2023-02-11T06:40:51;40.97;;;25.00;;
8737;SDS011;4405;49.272;8.590;2023-02-11T06:43:17;33.77;;;22.73;;
8737;SDS011;4405;49.272;8.590;2023-02-11T06:45:44;36.03;;;23.33;;
8737;SDS011;4405;49.272;8.590;2023-02-11T06:48:11;37.97;;;24.53;;
8737;SDS011;4405;49.272;8.590;2023-02-11T06:50:38;36.87;;;23.87;;
8737;SDS011;4405;49.272;8.590;2023-02-11T06:53:04;33.37;;;22.77;;
8737;SDS011;4405;49.272;8.590;2023-02-11T06:55:30;38.50;;;23.63;;
8737;SDS011;4405;49.272;8.590;2023-02-11T06:57:57;33.80;;;22.70;;
8737;SDS011;4405;49.272;8.590;2023-02-11T07:00:23;37.13;;;24.20;;
8737;SDS011;4405;49.272;8.590;2023-02-11T07:02:50;34.10;;;23.00;;
8737;SDS011;4405;49.272;8.590;2023-02-11T07:05:18;33.00;;;22.93;;
8737;SDS011;4405;49.272;8.590;2023-02-11T07:07:44;35.97;;;23.17;;
8737;SDS011;4405;49.272;8.590;2023-02-11T07:10:11;33.73;;;22.80;;
8737;SDS011;4405;49.272;8.590;2023-02-11T07:12:37;39.67;;;24.43;;
8737;SDS011;4405;49.272;8.590;2023-02-11T07:15:04;33.53;;;23.10;;
8737;SDS011;4405;49.272;8.590;2023-02-11T07:17:33;37.70;;;23.97;;
8737;SDS011;4405;49.272;8.590;2023-02-11T07:19:59;35.50;;;24.40;;
8737;SDS011;4405;49.272;8.590;2023-02-11T07:22:27;33.43;;;23.83;;
8737;SDS011;4405;49.272;8.590;2023-02-11T07:24:53;34.53;;;23.27;;
8737;SDS011;4405;49.272;8.590;2023-02-11T07:27:20;34.17;;;23.23;;
8737;SDS011;4405;49.272;8.590;2023-02-11T07:29:46;33.67;;;23.07;;
8737;SDS011;4405;49.272;8.590;2023-02-11T07:32:12;37.60;;;24.03;;
8737;SDS011;4405;49.272;8.590;2023-02-11T07:34:39;37.13;;;23.37;;
8737;SDS011;4405;49.272;8.590;2023-02-11T07:37:05;38.10;;;24.17;;
8737;SDS011;4405;49.272;8.590;2023-02-11T07:39:33;34.57;;;23.93;;
8737;SDS011;4405;49.272;8.590;2023-02-11T07:41:59;34.43;;;23.17;;
8737;SDS011;4405;49.272;8.590;2023-02-11T07:44:26;36.40;;;23.60;;
8737;SDS011;4405;49.272;8.590;2023-02-11T07:46:52;35.90;;;23.87;;
8737;SDS011;4405;49.272;8.590;2023-02-11T07:49:18;33.77;;;23.07;;
8737;SDS011;4405;49.272;8.590;2023-02-11T07:51:45;35.30;;;22.67;;
8737;SDS011;4405;49.272;8.590;2023-02-11T07:54:13;35.00;;;22.83;;
8737;SDS011;4405;49.272;8.590;2023-02-11T07:56:40;35.57;;;23.37;;
8737;SDS011;4405;49.272;8.590;2023-02-11T07:59:07;40.47;;;23.20;;
8737;SDS011;4405;49.272;8.590;2023-02-11T08:01:33;37.97;;;23.87;;
8737;SDS011;4405;49.272;8.590;2023-02-11T08:04:00;37.33;;;24.23;;
8737;SDS011;4405;49.272;8.590;2023-02-11T08:06:28;32.77;;;23.43;;
8737;SDS011;4405;49.272;8.590;2023-02-11T08:08:54;36.43;;;22.87;;
8737;SDS011;4405;49.272;8.590;2023-02-11T08:11:21;33.50;;;22.07;;
8737;SDS011;4405;49.272;8.590;2023-02-11T08:13:49;35.43;;;23.67;;
8737;SDS011;4405;49.272;8.590;2023-02-11T08:16:17;32.73;;;23.33;;
8737;SDS011;4405;49.272;8.590;2023-02-11T08:18:44;32.47;;;22.73;;
8737;SDS011;4405;49.272;8.590;2023-02-11T08:21:10;33.87;;;23.60;;
8737;SDS011;4405;49.272;8.590;2023-02-11T08:23:37;32.77;;;22.53;;
8737;SDS011;4405;49.272;8.590;2023-02-11T08:26:04;36.77;;;23.50;;
8737;SDS011;4405;49.272;8.590;2023-02-11T08:28:30;35.37;;;23.37;;
8737;SDS011;4405;49.272;8.590;2023-02-11T08:31:00;36.10;;;23.50;;
8737;SDS011;4405;49.272;8.590;2023-02-11T08:33:29;35.97;;;22.60;;
8737;SDS011;4405;49.272;8.590;2023-02-11T08:35:55;33.40;;;22.47;;
8737;SDS011;4405;49.272;8.590;2023-02-11T08:38:22;36.17;;;23.77;;
8737;SDS011;4405;49.272;8.590;2023-02-11T08:40:48;35.73;;;23.67;;
8737;SDS011;4405;49.272;8.590;2023-02-11T08:43:15;36.80;;;24.73;;
8737;SDS011;4405;49.272;8.590;2023-02-11T08:45:41;36.03;;;24.37;;
8737;SDS011;4405;49.272;8.590;2023-02-11T08:48:09;34.80;;;24.20;;
8737;SDS011;4405;49.272;8.590;2023-02-11T08:50:37;35.07;;;24.27;;
8737;SDS011;4405;49.272;8.590;2023-02-11T08:53:03;34.20;;;24.90;;
8737;SDS011;4405;49.272;8.590;2023-02-11T08:55:30;35.23;;;24.23;;
8737;SDS011;4405;49.272;8.590;2023-02-11T08:57:56;35.47;;;25.37;;
8737;SDS011;4405;49.272;8.590;2023-02-11T09:00:23;37.30;;;25.43;;
8737;SDS011;4405;49.272;8.590;2023-02-11T09:02:49;33.43;;;23.83;;
8737;SDS011;4405;49.272;8.590;2023-02-11T09:05:17;33.20;;;24.63;;
8737;SDS011;4405;49.272;8.590;2023-02-11T09:07:43;31.97;;;24.27;;
8737;SDS011;4405;49.272;8.590;2023-02-11T09:10:09;33.67;;;24.43;;
8737;SDS011;4405;49.272;8.590;2023-02-11T09:12:36;34.87;;;23.40;;
8737;SDS011;4405;49.272;8.590;2023-02-11T09:15:02;34.00;;;24.40;;
8737;SDS011;4405;49.272;8.590;2023-02-11T09:17:28;34.27;;;23.33;;
8737;SDS011;4405;49.272;8.590;2023-02-11T09:19:55;29.43;;;22.00;;
8737;SDS011;4405;49.272;8.590;2023-02-11T09:22:22;32.27;;;23.13;;
8737;SDS011;4405;49.272;8.590;2023-02-11T09:24:49;31.57;;;23.20;;
8737;SDS011;4405;49.272;8.590;2023-02-11T09:27:15;31.80;;;23.23;;
8737;SDS011;4405;49.272;8.590;2023-02-11T09:29:41;30.37;;;22.43;;
8737;SDS011;4405;49.272;8.590;2023-02-11T09:32:08;31.73;;;22.60;;
8737;SDS011;4405;49.272;8.590;2023-02-11T09:34:34;28.07;;;22.33;;
8737;SDS011;4405;49.272;8.590;2023-02-11T09:37:00;29.23;;;21.70;;
8737;SDS011;4405;49.272;8.590;2023-02-11T09:39:28;26.90;;;20.90;;
8737;SDS011;4405;49.272;8.590;2023-02-11T09:44:36;27.70;;;20.00;;
8737;SDS011;4405;49.272;8.590;2023-02-11T09:47:03;27.70;;;20.37;;
8737;SDS011;4405;49.272;8.590;2023-02-11T09:49:32;31.37;;;20.60;;
8737;SDS011;4405;49.272;8.590;2023-02-11T09:52:01;27.03;;;22.90;;
8737;SDS011;4405;49.272;8.590;2023-02-11T09:54:33;25.43;;;19.93;;
8737;SDS011;4405;49.272;8.590;2023-02-11T09:57:01;24.67;;;19.87;;
8737;SDS011;4405;49.272;8.590;2023-02-11T09:59:27;21.67;;;17.27;;
8737;SDS011;4405;49.272;8.590;2023-02-11T10:01:55;20.27;;;16.73;;
8737;SDS011;4405;49.272;8.590;2023-02-11T10:04:26;22.03;;;15.77;;
8737;SDS011;4405;49.272;8.590;2023-02-11T10:06:58;19.63;;;16.20;;
8737;SDS011;4405;49.272;8.590;2023-02-11T10:09:35;23.07;;;16.77;;
8737;SDS011;4405;49.272;8.590;2023-02-11T10:12:19;19.30;;;15.80;;
8737;SDS011;4405;49.272;8.590;2023-02-11T10:14:50;19.90;;;15.67;;
8737;SDS011;4405;49.272;8.590;2023-02-11T10:17:20;20.47;;;15.87;;
8737;SDS011;4405;49.272;8.590;2023-02-11T10:19:54;19.03;;;14.43;;
8737;SDS011;4405;49.272;8.590;2023-02-11T10:22:26;18.80;;;15.57;;
8737;SDS011;4405;49.272;8.590;2023-02-11T10:24:55;16.70;;;14.47;;
8737;SDS011;4405;49.272;8.590;2023-02-11T10:27:26;17.00;;;14.53;;
8737;SDS011;4405;49.272;8.590;2023-02-11T10:29:53;21.10;;;16.53;;
8737;SDS011;4405;49.272;8.590;2023-02-11T10:32:26;21.13;;;16.17;;
8737;SDS011;4405;49.272;8.590;2023-02-11T10:34:55;19.97;;;16.63;;
8737;SDS011;4405;49.272;8.590;2023-02-11T10:37:23;20.03;;;16.87;;
8737;SDS011;4405;49.272;8.590;2023-02-11T10:39:49;20.37;;;16.90;;
8737;SDS011;4405;49.272;8.590;2023-02-11T10:42:17;23.87;;;17.23;;
8737;SDS011;4405;49.272;8.590;2023-02-11T10:44:46;21.63;;;17.23;;
8737;SDS011;4405;49.272;8.590;2023-02-11T10:47:16;22.30;;;17.23;;
8737;SDS011;4405;49.272;8.590;2023-02-11T10:49:44;20.87;;;16.97;;
8737;SDS011;4405;49.272;8.590;2023-02-11T10:52:11;23.20;;;17.13;;
8737;SDS011;4405;49.272;8.590;2023-02-11T10:54:38;19.67;;;16.23;;
8737;SDS011;4405;49.272;8.590;2023-02-11T10:57:04;20.73;;;16.37;;
8737;SDS011;4405;49.272;8.590;2023-02-11T10:59:33;19.90;;;16.70;;
8737;SDS011;4405;49.272;8.590;2023-02-11T11:02:03;19.50;;;16.33;;
8737;SDS011;4405;49.272;8.590;2023-02-11T11:04:36;23.10;;;16.57;;
8737;SDS011;4405;49.272;8.590;2023-02-11T11:07:09;20.63;;;16.70;;
8737;SDS011;4405;49.272;8.590;2023-02-11T11:09:42;18.47;;;15.77;;
8737;SDS011;4405;49.272;8.590;2023-02-11T11:12:12;18.80;;;16.77;;
8737;SDS011;4405;49.272;8.590;2023-02-11T11:14:54;18.50;;;15.63;;
8737;SDS011;4405;49.272;8.590;2023-02-11T11:17:20;19.10;;;14.63;;
8737;SDS011;4405;49.272;8.590;2023-02-11T11:19:46;20.40;;;16.00;;
8737;SDS011;4405;49.272;8.590;2023-02-11T11:22:18;21.47;;;16.07;;
8737;SDS011;4405;49.272;8.590;2023-02-11T11:24:45;19.33;;;16.27;;
8737;SDS011;4405;49.272;8.590;2023-02-11T11:27:18;19.90;;;15.20;;
8737;SDS011;4405;49.272;8.590;2023-02-11T11:29:46;18.33;;;15.90;;
8737;SDS011;4405;49.272;8.590;2023-02-11T11:32:17;19.23;;;15.53;;
8737;SDS011;4405;49.272;8.590;2023-02-11T11:34:47;18.97;;;16.13;;
8737;SDS011;4405;49.272;8.590;2023-02-11T11:37:18;18.33;;;15.83;;
8737;SDS011;4405;49.272;8.590;2023-02-11T11:39:47;20.53;;;15.03;;
8737;SDS011;4405;49.272;8.590;2023-02-11T11:42:25;19.73;;;15.83;;
8737;SDS011;4405;49.272;8.590;2023-02-11T11:44:55;22.00;;;15.60;;
8737;SDS011;4405;49.272;8.590;2023-02-11T11:47:25;17.53;;;15.40;;
8737;SDS011;4405;49.272;8.590;2023-02-11T11:50:04;18.73;;;15.60;;
8737;SDS011;4405;49.272;8.590;2023-02-11T11:52:36;17.90;;;16.00;;
8737;SDS011;4405;49.272;8.590;2023-02-11T11:55:08;19.33;;;16.20;;
8737;SDS011;4405;49.272;8.590;2023-02-11T11:57:37;18.63;;;15.43;;
8737;SDS011;4405;49.272;8.590;2023-02-11T12:00:04;19.30;;;15.10;;
8737;SDS011;4405;49.272;8.590;2023-02-11T12:02:43;17.80;;;14.50;;
8737;SDS011;4405;49.272;8.590;2023-02-11T12:05:13;18.67;;;14.60;;
8737;SDS011;4405;49.272;8.590;2023-02-11T12:07:46;16.43;;;14.17;;
8737;SDS011;4405;49.272;8.590;2023-02-11T12:10:27;16.47;;;14.27;;
8737;SDS011;4405;49.272;8.590;2023-02-11T12:12:59;17.43;;;14.30;;
8737;SDS011;4405;49.272;8.590;2023-02-11T12:15:31;16.53;;;14.80;;
8737;SDS011;4405;49.272;8.590;2023-02-11T12:18:10;16.70;;;14.50;;
8737;SDS011;4405;49.272;8.590;2023-02-11T12:20:48;15.93;;;13.43;;
8737;SDS011;4405;49.272;8.590;2023-02-11T12:23:20;16.77;;;14.43;;
8737;SDS011;4405;49.272;8.590;2023-02-11T12:25:55;15.30;;;13.57;;
8737;SDS011;4405;49.272;8.590;2023-02-11T12:28:26;15.70;;;13.63;;
8737;SDS011;4405;49.272;8.590;2023-02-11T12:33:42;17.07;;;13.77;;
8737;SDS011;4405;49.272;8.590;2023-02-11T12:36:14;14.80;;;13.07;;
8737;SDS011;4405;49.272;8.590;2023-02-11T12:38:53;17.27;;;13.90;;
8737;SDS011;4405;49.272;8.590;2023-02-11T12:41:27;14.33;;;12.93;;
8737;SDS011;4405;49.272;8.590;2023-02-11T12:44:13;14.57;;;12.87;;
8737;SDS011;4405;49.272;8.590;2023-02-11T12:46:44;14.23;;;12.80;;
8737;SDS011;4405;49.272;8.590;2023-02-11T12:52:10;16.77;;;13.43;;
8737;SDS011;4405;49.272;8.590;2023-02-11T12:54:40;14.97;;;13.37;;
8737;SDS011;4405;49.272;8.590;2023-02-11T12:57:12;17.33;;;13.00;;
8737;SDS011;4405;49.272;8.590;2023-02-11T12:59:43;14.50;;;12.97;;
8737;SDS011;4405;49.272;8.590;2023-02-11T13:02:13;14.67;;;13.17;;
8737;SDS011;4405;49.272;8.590;2023-02-11T13:04:45;15.50;;;13.90;;
8737;SDS011;4405;49.272;8.590;2023-02-11T13:07:15;17.57;;;13.50;;
8737;SDS011;4405;49.272;8.590;2023-02-11T13:09:46;13.83;;;12.43;;
8737;SDS011;4405;49.272;8.590;2023-02-11T13:12:14;14.90;;;12.90;;
8737;SDS011;4405;49.272;8.590;2023-02-11T13:15:02;13.80;;;12.40;;
8737;SDS011;4405;49.272;8.590;2023-02-11T13:17:31;16.27;;;13.40;;
8737;SDS011;4405;49.272;8.590;2023-02-11T13:19:58;14.10;;;12.67;;
8737;SDS011;4405;49.272;8.590;2023-02-11T13:22:28;14.80;;;13.30;;
8737;SDS011;4405;49.272;8.590;2023-02-11T13:24:57;14.53;;;13.07;;
8737;SDS011;4405;49.272;8.590;2023-02-11T13:27:28;14.27;;;12.77;;
8737;SDS011;4405;49.272;8.590;2023-02-11T13:30:13;15.50;;;13.93;;
8737;SDS011;4405;49.272;8.590;2023-02-11T13:35:28;14.63;;;13.23;;
8737;SDS011;4405;49.272;8.590;2023-02-11T13:37:57;14.53;;;12.37;;
8737;SDS011;4405;49.272;8.590;2023-02-11T13:40:25;14.33;;;13.00;;
8737;SDS011;4405;49.272;8.590;2023-02-11T13:42:53;15.63;;;13.00;;
8737;SDS011;4405;49.272;8.590;2023-02-11T13:45:26;16.63;;;13.87;;
8737;SDS011;4405;49.272;8.590;2023-02-11T13:47:54;15.47;;;13.80;;
8737;SDS011;4405;49.272;8.590;2023-02-11T13:50:22;14.40;;;13.00;;
8737;SDS011;4405;49.272;8.590;2023-02-11T13:52:54;14.57;;;13.03;;
8737;SDS011;4405;49.272;8.590;2023-02-11T13:55:23;14.93;;;13.50;;
8737;SDS011;4405;49.272;8.590;2023-02-11T14:00:43;15.20;;;13.37;;
8737;SDS011;4405;49.272;8.590;2023-02-11T14:06:22;14.10;;;12.60;;
8737;SDS011;4405;49.272;8.590;2023-02-11T14:09:08;14.70;;;13.10;;
8737;SDS011;4405;49.272;8.590;2023-02-11T14:11:44;14.40;;;13.07;;
8737;SDS011;4405;49.272;8.590;2023-02-11T14:14:20;15.70;;;13.83;;
8737;SDS011;4405;49.272;8.590;2023-02-11T14:19:38;14.90;;;13.40;;
8737;SDS011;4405;49.272;8.590;2023-02-11T14:22:10;15.67;;;13.83;;
8737;SDS011;4405;49.272;8.590;2023-02-11T14:24:44;15.53;;;13.93;;
8737;SDS011;4405;49.272;8.590;2023-02-11T14:27:15;15.60;;;14.00;;
8737;SDS011;4405;49.272;8.590;2023-02-11T14:29:47;17.77;;;13.70;;
8737;SDS011;4405;49.272;8.590;2023-02-11T14:32:18;15.40;;;13.77;;
8737;SDS011;4405;49.272;8.590;2023-02-11T14:34:52;15.93;;;14.43;;
8737;SDS011;4405;49.272;8.590;2023-02-11T14:37:24;16.00;;;14.30;;
8737;SDS011;4405;49.272;8.590;2023-02-11T14:39:57;20.23;;;15.50;;
8737;SDS011;4405;49.272;8.590;2023-02-11T14:42:26;15.33;;;13.77;;
8737;SDS011;4405;49.272;8.590;2023-02-11T14:44:54;17.70;;;14.17;;
8737;SDS011;4405;49.272;8.590;2023-02-11T14:47:22;17.53;;;15.47;;
8737;SDS011;4405;49.272;8.590;2023-02-11T14:49:49;28.10;;;25.07;;
8737;SDS011;4405;49.272;8.590;2023-02-11T14:52:19;17.93;;;15.30;;
8737;SDS011;4405;49.272;8.590;2023-02-11T14:54:48;15.50;;;13.90;;
8737;SDS011;4405;49.272;8.590;2023-02-11T14:57:16;16.17;;;14.43;;
8737;SDS011;4405;49.272;8.590;2023-02-11T14:59:52;19.10;;;15.23;;
8737;SDS011;4405;49.272;8.590;2023-02-11T15:02:20;17.33;;;14.77;;
8737;SDS011;4405;49.272;8.590;2023-02-11T15:04:47;16.60;;;14.80;;
8737;SDS011;4405;49.272;8.590;2023-02-11T15:07:13;16.13;;;14.40;;
8737;SDS011;4405;49.272;8.590;2023-02-11T15:09:40;16.00;;;14.30;;
8737;SDS011;4405;49.272;8.590;2023-02-11T15:12:09;16.53;;;14.03;;
8737;SDS011;4405;49.272;8.590;2023-02-11T15:14:43;16.47;;;13.90;;
8737;SDS011;4405;49.272;8.590;2023-02-11T15:17:13;16.57;;;14.20;;
8737;SDS011;4405;49.272;8.590;2023-02-11T15:19:43;17.07;;;13.97;;
8737;SDS011;4405;49.272;8.590;2023-02-11T15:22:14;17.43;;;14.50;;
8737;SDS011;4405;49.272;8.590;2023-02-11T15:24:44;15.27;;;13.67;;